Time;durP1;ratioP1;P1;durP2;ratioP2;P2;SDS_P1;SDS_P2;PMS_P1;PMS_P2;Temp;Humidity;BMP_temperature;BMP_pressure;BME280_temperature;BME280_humidity;BME280_pressure;Samples;Min_cycle;Max_cycle;Signal;HPM_P1;HPM_P2
2023/01/12 00:02:00;;;;;;;17.70;3.28;;;;;;;;;;6167802;23;20032;-91
2023/01/12 00:04:26;;;;;;;17.02;2.15;;;;;;;;;;6168118;23;20036;-91
2023/01/12 00:06:52;;;;;;;19.52;1.95;;;;;;;;;;6192177;23;20008;-91
2023/01/12 00:09:19;;;;;;;25.67;2.85;;;;;;;;;;6191982;23;20051;-91
2023/01/12 00:11:45;;;;;;;15.52;2.70;;;;;;;;;;6192279;23;20009;-91
2023/01/12 00:14:21;;;;;;;22.02;2.67;;;;;;;;;;6167639;23;20031;-91
2023/01/12 00:17:00;;;;;;;40.38;3.42;;;;;;;;;;6191091;23;20429;-90
2023/01/12 00:19:28;;;;;;;28.42;2.72;;;;;;;;;;6166809;23;20012;-91
2023/01/12 00:22:10;;;;;;;26.45;3.13;;;;;;;;;;6194506;22;20001;-91
2023/01/12 00:24:40;;;;;;;10.85;2.00;;;;;;;;;;6191805;23;20063;-91
2023/01/12 00:27:09;;;;;;;19.05;2.72;;;;;;;;;;6191670;23;20063;-90
2023/01/12 00:29:37;;;;;;;29.35;3.40;;;;;;;;;;6192323;23;20074;-91
2023/01/12 00:32:04;;;;;;;16.42;2.92;;;;;;;;;;6193530;23;20032;-92
2023/01/12 00:34:30;;;;;;;13.75;1.98;;;;;;;;;;6193749;23;20004;-90
2023/01/12 00:37:04;;;;;;;20.27;3.38;;;;;;;;;;6194105;23;20031;-92
2023/01/12 00:39:30;;;;;;;18.27;2.10;;;;;;;;;;6194265;23;20071;-90
2023/01/12 00:47:25;;;;;;;33.17;3.67;;;;;;;;;;6220181;23;20474;-91
2023/01/12 00:49:53;;;;;;;21.52;2.42;;;;;;;;;;6193680;23;20005;-92
2023/01/12 00:52:20;;;;;;;34.70;3.45;;;;;;;;;;6193771;23;20005;-91
2023/01/12 00:54:46;;;;;;;19.42;2.42;;;;;;;;;;6192831;23;20436;-92
2023/01/12 00:57:14;;;;;;;32.60;3.10;;;;;;;;;;6193111;23;20008;-91
2023/01/12 00:59:43;;;;;;;12.38;1.42;;;;;;;;;;6193175;23;20020;-92
2023/01/12 01:02:09;;;;;;;30.63;2.90;;;;;;;;;;6167965;23;20009;-91
2023/01/12 01:04:35;;;;;;;22.85;3.38;;;;;;;;;;6167927;23;20013;-91
2023/01/12 01:07:11;;;;;;;18.38;3.17;;;;;;;;;;6193114;23;20012;-92
2023/01/12 01:09:37;;;;;;;;;;;;;;;;;;6193920;23;20011;-91
2023/01/12 01:12:03;;;;;;;14.88;1.85;;;;;;;;;;6192902;23;19974;-91
2023/01/12 01:14:32;;;;;;;15.93;3.58;;;;;;;;;;6193263;23;20400;-91
2023/01/12 01:16:59;;;;;;;20.83;2.97;;;;;;;;;;6167756;23;20074;-92
2023/01/12 01:19:25;;;;;;;19.02;4.32;;;;;;;;;;6192829;23;20004;-91
2023/01/12 01:21:51;;;;;;;27.30;3.30;;;;;;;;;;6169967;22;20031;-92
2023/01/12 01:24:17;;;;;;;23.33;2.78;;;;;;;;;;6167001;23;20098;-92
2023/01/12 01:26:43;;;;;;;24.67;3.90;;;;;;;;;;6168073;23;20487;-92
2023/01/12 01:29:10;;;;;;;22.77;3.05;;;;;;;;;;6192174;23;20008;-92
2023/01/12 01:31:36;;;;;;;15.68;2.67;;;;;;;;;;6193035;23;20401;-92
2023/01/12 01:34:05;;;;;;;26.55;3.20;;;;;;;;;;6192713;23;20181;-91
2023/01/12 01:36:31;;;;;;;16.83;3.50;;;;;;;;;;6193152;23;20425;-91
2023/01/12 01:39:00;;;;;;;17.98;2.80;;;;;;;;;;6193199;23;20004;-91
2023/01/12 01:41:31;;;;;;;18.13;3.15;;;;;;;;;;6192272;23;20005;-91
2023/01/12 01:43:58;;;;;;;13.20;2.88;;;;;;;;;;6192581;23;20027;-91
2023/01/12 01:46:43;;;;;;;24.17;3.50;;;;;;;;;;6192508;23;20004;-91
2023/01/12 01:49:22;;;;;;;20.60;3.22;;;;;;;;;;6193121;23;20008;-92
2023/01/12 01:51:48;;;;;;;21.63;3.60;;;;;;;;;;6193435;23;20008;-92
2023/01/12 01:54:17;;;;;;;16.40;1.92;;;;;;;;;;6168443;23;20009;-91
2023/01/12 01:56:44;;;;;;;16.38;2.65;;;;;;;;;;6168823;23;20009;-91
2023/01/12 01:59:14;;;;;;;40.17;2.63;;;;;;;;;;6169258;23;20341;-90
2023/01/12 02:01:40;;;;;;;16.90;2.60;;;;;;;;;;6193890;23;20377;-90
2023/01/12 02:04:07;;;;;;;17.25;2.38;;;;;;;;;;6193818;23;20032;-91
2023/01/12 02:06:33;;;;;;;14.50;3.13;;;;;;;;;;6193412;23;20039;-91
2023/01/12 02:09:21;;;;;;;13.68;2.03;;;;;;;;;;6192523;23;20043;-89
2023/01/12 02:17:30;;;;;;;28.10;3.42;;;;;;;;;;6219782;23;20070;-90
2023/01/12 02:20:07;;;;;;;28.70;3.08;;;;;;;;;;6192392;23;20008;-91
2023/01/12 02:22:56;;;;;;;12.68;1.63;;;;;;;;;;6201198;22;20068;-91
2023/01/12 02:25:28;;;;;;;15.18;2.10;;;;;;;;;;6192614;23;20433;-91
2023/01/12 02:28:05;;;;;;;25.95;3.10;;;;;;;;;;6192582;23;20344;-91
2023/01/12 02:30:45;;;;;;;21.35;2.95;;;;;;;;;;6192444;23;20107;-91
2023/01/12 02:33:34;;;;;;;9.80;1.77;;;;;;;;;;6219212;23;20036;-91
2023/01/12 02:36:13;;;;;;;37.33;3.63;;;;;;;;;;6190610;23;20005;-91
2023/01/12 02:38:58;;;;;;;22.90;3.33;;;;;;;;;;6193635;23;20004;-91
2023/01/12 02:44:31;;;;;;;19.45;2.85;;;;;;;;;;6219011;23;20015;-91
2023/01/12 02:47:00;;;;;;;12.32;2.50;;;;;;;;;;6191990;23;20054;-90
2023/01/12 02:49:30;;;;;;;18.92;3.58;;;;;;;;;;6190975;23;20032;-92
2023/01/12 02:52:04;;;;;;;37.33;3.80;;;;;;;;;;6190916;23;20012;-92
2023/01/12 02:54:32;;;;;;;20.10;2.45;;;;;;;;;;6192228;23;20394;-92
2023/01/12 02:57:01;;;;;;;8.85;1.92;;;;;;;;;;6189506;23;20015;-92
2023/01/12 02:59:29;;;;;;;20.83;3.70;;;;;;;;;;6190873;23;20005;-92
2023/01/12 03:01:57;;;;;;;7.40;1.50;;;;;;;;;;6191318;23;20008;-92
2023/01/12 03:04:24;;;;;;;19.08;2.80;;;;;;;;;;6166838;23;20073;-92
2023/01/12 03:06:59;;;;;;;23.58;2.83;;;;;;;;;;6191448;23;20015;-92
2023/01/12 03:09:28;;;;;;;19.43;3.83;;;;;;;;;;6191177;23;20391;-92
2023/01/12 03:11:56;;;;;;;17.73;3.00;;;;;;;;;;6166365;23;20459;-91
2023/01/12 03:14:22;;;;;;;17.85;3.08;;;;;;;;;;6190209;23;20016;-90
2023/01/12 03:16:53;;;;;;;19.63;3.45;;;;;;;;;;6191109;23;20638;-92
2023/01/12 03:19:28;;;;;;;21.67;3.28;;;;;;;;;;6190999;23;20008;-91
2023/01/12 03:21:57;;;;;;;31.87;2.77;;;;;;;;;;6189933;23;20027;-92
2023/01/12 03:24:26;;;;;;;6.97;1.48;;;;;;;;;;6188886;22;20048;-92
2023/01/12 03:26:55;;;;;;;26.33;3.40;;;;;;;;;;6193271;23;20028;-91
2023/01/12 03:29:25;;;;;;;29.92;3.45;;;;;;;;;;6193059;23;20342;-92
2023/01/12 03:31:51;;;;;;;17.95;3.97;;;;;;;;;;6191600;23;20004;-93
2023/01/12 03:34:17;;;;;;;18.42;3.13;;;;;;;;;;6192550;23;20024;-92
2023/01/12 03:37:13;;;;;;;8.13;2.13;;;;;;;;;;6166691;23;20047;-91
2023/01/12 03:39:48;;;;;;;14.98;2.33;;;;;;;;;;6164750;23;20040;-90
2023/01/12 03:42:20;;;;;;;21.95;3.17;;;;;;;;;;6190117;23;20456;-91
2023/01/12 03:45:05;;;;;;;14.35;2.97;;;;;;;;;;6188897;23;20046;-91
2023/01/12 03:47:32;;;;;;;19.30;2.78;;;;;;;;;;6188979;23;20310;-92
2023/01/12 03:50:02;;;;;;;18.67;2.63;;;;;;;;;;6187849;23;20283;-91
2023/01/12 03:52:30;;;;;;;11.43;3.17;;;;;;;;;;6188985;23;20008;-91
2023/01/12 03:54:57;;;;;;;18.65;3.30;;;;;;;;;;6190587;23;20504;-92
2023/01/12 03:57:23;;;;;;;7.50;1.50;;;;;;;;;;6191288;23;20015;-93
2023/01/12 03:59:52;;;;;;;13.48;1.98;;;;;;;;;;6191221;23;20088;-91
2023/01/12 04:02:18;;;;;;;12.60;2.78;;;;;;;;;;6192192;23;20417;-91
2023/01/12 04:04:47;;;;;;;12.98;2.10;;;;;;;;;;6168201;23;20084;-91
2023/01/12 04:07:13;;;;;;;14.43;2.10;;;;;;;;;;6194427;23;20004;-91
2023/01/12 04:09:40;;;;;;;18.77;2.05;;;;;;;;;;6169444;23;20012;-91
2023/01/12 04:12:09;;;;;;;9.85;1.42;;;;;;;;;;6168717;23;20472;-91
2023/01/12 04:14:38;;;;;;;23.35;2.78;;;;;;;;;;6193823;23;20468;-91
2023/01/12 04:17:14;;;;;;;22.60;2.42;;;;;;;;;;6193806;23;20337;-91
2023/01/12 04:19:41;;;;;;;5.65;1.52;;;;;;;;;;6192479;23;20233;-91
2023/01/12 04:25:08;;;;;;;15.57;2.20;;;;;;;;;;6206852;22;20395;-93
2023/01/12 04:27:40;;;;;;;23.52;2.78;;;;;;;;;;6191486;23;20008;-93
2023/01/12 04:30:06;;;;;;;7.63;1.77;;;;;;;;;;6191985;23;20008;-92
2023/01/12 04:32:32;;;;;;;12.88;1.98;;;;;;;;;;6166589;23;20086;-92
2023/01/12 04:34:58;;;;;;;9.02;2.53;;;;;;;;;;6191893;23;20393;-92
2023/01/12 04:37:24;;;;;;;12.57;2.20;;;;;;;;;;6191905;23;20297;-91
2023/01/12 04:39:51;;;;;;;20.40;1.70;;;;;;;;;;6191693;23;20052;-93
2023/01/12 04:45:01;;;;;;;18.88;1.73;;;;;;;;;;6196305;23;20054;-91
2023/01/12 04:47:27;;;;;;;4.78;1.08;;;;;;;;;;6166584;23;20037;-90
2023/01/12 04:49:56;;;;;;;16.27;2.10;;;;;;;;;;6191532;23;20348;-91
2023/01/12 04:52:22;;;;;;;6.68;1.48;;;;;;;;;;6166199;23;20013;-90
2023/01/12 04:54:48;;;;;;;12.40;2.20;;;;;;;;;;6191023;23;20091;-90
2023/01/12 04:57:18;;;;;;;12.98;2.83;;;;;;;;;;6166331;23;20345;-90
2023/01/12 04:59:44;;;;;;;6.50;1.23;;;;;;;;;;6166691;23;20390;-91
2023/01/12 05:02:14;;;;;;;1.58;0.80;;;;;;;;;;6191489;23;20001;-91
2023/01/12 05:04:41;;;;;;;13.75;2.75;;;;;;;;;;6192475;23;20072;-91
2023/01/12 05:10:27;;;;;;;5.57;1.35;;;;;;;;;;6183642;23;20009;-91
2023/01/12 05:12:57;;;;;;;5.38;0.85;;;;;;;;;;6204913;23;20035;-91
2023/01/12 05:16:41;;;;;;;1.75;0.80;;;;;;;;;;6231226;23;20091;-89
2023/01/12 05:18:53;;;;;;;12.15;1.05;;;;;;;;;;6197998;23;20040;-91
2023/01/12 05:24:28;;;;;;;7.88;0.95;;;;;;;;;;6065644;23;20105;-91
2023/01/12 05:27:03;;;;;;;2.30;0.80;;;;;;;;;;6045103;23;20467;-91
2023/01/12 05:29:40;;;;;;;6.88;1.58;;;;;;;;;;6157420;23;20067;-91
2023/01/12 05:32:06;;;;;;;2.17;0.85;;;;;;;;;;6166106;23;20016;-90
2023/01/12 05:34:33;;;;;;;10.25;1.40;;;;;;;;;;6192663;23;20332;-92
2023/01/12 05:37:00;;;;;;;7.47;1.67;;;;;;;;;;6195165;23;20242;-91
2023/01/12 05:39:47;;;;;;;;;;;;;;;;;;;;;
2023/01/12 05:45:20;;;;;;;2.23;0.50;;;;;;;;;;6169425;23;20032;-91
2023/01/12 05:48:08;;;;;;;1.00;0.70;;;;;;;;;;6143260;23;20059;-92
2023/01/12 05:50:49;;;;;;;2.83;1.52;;;;;;;;;;6169460;23;20006;-92
2023/01/12 05:53:49;;;;;;;4.18;0.88;;;;;;;;;;6168221;23;20086;-92
2023/01/12 05:56:32;;;;;;;;;;;;;;;;;;;;;
2023/01/12 05:59:22;;;;;;;1.02;0.57;;;;;;;;;;6166414;23;20040;-92
2023/01/12 06:01:47;;;;;;;1.45;0.63;;;;;;;;;;6158880;23;20437;-92
2023/01/12 06:04:13;;;;;;;0.68;0.30;;;;;;;;;;6107176;23;20017;-92
2023/01/12 06:06:42;;;;;;;5.43;0.60;;;;;;;;;;6105939;23;20433;-92
2023/01/12 06:09:08;;;;;;;3.47;0.70;;;;;;;;;;6106321;23;20024;-92
2023/01/12 06:14:19;;;;;;;0.55;0.30;;;;;;;;;;6136505;23;20433;-92
2023/01/12 06:16:45;;;;;;;1.10;0.20;;;;;;;;;;6106040;23;20022;-92
2023/01/12 06:19:11;;;;;;;5.43;1.20;;;;;;;;;;6129997;23;20072;-92
2023/01/12 06:21:37;;;;;;;1.15;0.50;;;;;;;;;;6126837;23;20017;-91
2023/01/12 06:24:04;;;;;;;1.55;0.38;;;;;;;;;;6104480;23;20041;-92
2023/01/12 06:26:30;;;;;;;1.17;0.45;;;;;;;;;;6127330;23;20460;-91
2023/01/12 06:28:56;;;;;;;0.00;0.00;;;;;;;;;;6102097;23;20017;-93
2023/01/12 06:31:26;;;;;;;0.00;0.00;;;;;;;;;;6135999;23;20090;-92
2023/01/12 06:33:52;;;;;;;0.00;0.00;;;;;;;;;;6166423;23;20019;-92
2023/01/12 06:36:18;;;;;;;0.00;0.00;;;;;;;;;;6165518;23;20015;-91
2023/01/12 06:38:44;;;;;;;2.50;1.77;;;;;;;;;;6190740;23;20032;-91
2023/01/12 06:42:27;;;;;;;0.00;0.00;;;;;;;;;;6190085;23;20016;-91
2023/01/12 06:43:58;;;;;;;0.00;0.00;;;;;;;;;;6217349;23;20428;-93
2023/01/12 06:46:30;;;;;;;0.00;0.00;;;;;;;;;;6191295;23;20399;-92
2023/01/12 06:48:57;;;;;;;0.00;0.00;;;;;;;;;;6192737;23;20009;-92
2023/01/12 06:51:26;;;;;;;0.00;0.00;;;;;;;;;;6188843;23;20016;-93
2023/01/12 06:53:55;;;;;;;0.00;0.00;;;;;;;;;;6169054;23;20008;-91
2023/01/12 06:56:21;;;;;;;0.00;0.00;;;;;;;;;;6161422;23;20008;-92
2023/01/12 06:58:48;;;;;;;0.00;0.00;;;;;;;;;;6186971;23;20009;-91
2023/01/12 07:01:14;;;;;;;0.00;0.00;;;;;;;;;;6189094;23;20090;-92
2023/01/12 07:03:40;;;;;;;0.00;0.00;;;;;;;;;;6187140;23;20468;-90
2023/01/12 07:06:06;;;;;;;0.00;0.00;;;;;;;;;;6187512;23;20096;-92
2023/01/12 07:08:32;;;;;;;0.00;0.00;;;;;;;;;;6164508;23;20012;-92
2023/01/12 07:11:03;;;;;;;0.00;0.00;;;;;;;;;;6188482;23;20080;-93
2023/01/12 07:13:32;;;;;;;2.75;2.53;;;;;;;;;;6191302;23;20015;-92
2023/01/12 07:15:58;;;;;;;0.00;0.00;;;;;;;;;;6192350;23;20064;-92
2023/01/12 07:18:25;;;;;;;0.00;0.00;;;;;;;;;;6192340;23;20062;-92
2023/01/12 07:20:51;;;;;;;0.00;0.00;;;;;;;;;;6166426;23;20083;-92
2023/01/12 07:23:17;;;;;;;0.15;0.15;;;;;;;;;;6167684;22;20491;-92
2023/01/12 07:25:43;;;;;;;0.00;0.00;;;;;;;;;;6163114;23;20041;-93
2023/01/12 07:28:10;;;;;;;0.00;0.00;;;;;;;;;;6188717;23;20013;-93
2023/01/12 07:30:36;;;;;;;0.00;0.00;;;;;;;;;;6160220;23;20068;-92
2023/01/12 07:33:11;;;;;;;0.03;0.03;;;;;;;;;;6184102;23;20425;-92
2023/01/12 07:35:37;;;;;;;0.00;0.00;;;;;;;;;;6190655;23;20015;-93
2023/01/12 07:38:07;;;;;;;0.00;0.00;;;;;;;;;;6189829;23;20388;-92
2023/01/12 07:40:33;;;;;;;0.80;0.80;;;;;;;;;;6188804;23;20004;-92
2023/01/12 07:43:00;;;;;;;0.00;0.00;;;;;;;;;;6191290;23;20441;-91
2023/01/12 07:45:26;;;;;;;0.00;0.00;;;;;;;;;;6190455;23;20241;-93
2023/01/12 07:47:55;;;;;;;0.00;0.00;;;;;;;;;;6168336;23;20421;-93
2023/01/12 07:50:22;;;;;;;0.00;0.00;;;;;;;;;;6167553;23;20318;-92
2023/01/12 07:52:48;;;;;;;0.00;0.00;;;;;;;;;;6165034;23;20103;-92
2023/01/12 07:55:18;;;;;;;0.00;0.00;;;;;;;;;;6166475;23;20038;-92
2023/01/12 07:57:53;;;;;;;0.00;0.00;;;;;;;;;;6191354;23;20012;-92
2023/01/12 08:00:23;;;;;;;0.00;0.00;;;;;;;;;;6197193;23;19997;-93
2023/01/12 08:03:11;;;;;;;0.00;0.00;;;;;;;;;;6167511;23;20043;-92
2023/01/12 08:06:01;;;;;;;1.52;1.40;;;;;;;;;;6199127;23;20005;-93
2023/01/12 08:08:27;;;;;;;0.00;0.00;;;;;;;;;;6217741;23;20436;-92
2023/01/12 08:10:53;;;;;;;0.00;0.00;;;;;;;;;;6172213;23;20005;-91
2023/01/12 08:13:31;;;;;;;1.85;1.20;;;;;;;;;;6170333;23;20008;-93
2023/01/12 08:19:02;;;;;;;0.00;0.00;;;;;;;;;;6205778;23;20099;-91
2023/01/12 08:21:32;;;;;;;0.82;0.77;;;;;;;;;;6169800;23;20496;-93
2023/01/12 08:24:11;;;;;;;0.00;0.00;;;;;;;;;;6204208;22;20336;-92
2023/01/12 08:26:39;;;;;;;0.00;0.00;;;;;;;;;;6195198;23;20039;-92
2023/01/12 08:29:22;;;;;;;0.00;0.00;;;;;;;;;;6195974;23;20088;-92
2023/01/12 08:31:48;;;;;;;0.00;0.00;;;;;;;;;;6192585;23;20016;-90
2023/01/12 08:34:14;;;;;;;0.00;0.00;;;;;;;;;;6191897;23;20013;-90
2023/01/12 08:36:42;;;;;;;0.00;0.00;;;;;;;;;;6167082;23;20013;-92
2023/01/12 08:39:08;;;;;;;0.00;0.00;;;;;;;;;;6198768;23;20005;-92
2023/01/12 08:41:36;;;;;;;0.00;0.00;;;;;;;;;;6191268;23;20452;-92
2023/01/12 08:44:14;;;;;;;2.90;1.77;;;;;;;;;;6192670;23;20439;-91
2023/01/12 08:46:53;;;;;;;0.00;0.00;;;;;;;;;;6191200;23;20066;-92
2023/01/12 08:49:21;;;;;;;0.00;0.00;;;;;;;;;;6168699;23;20115;-92
2023/01/12 08:51:47;;;;;;;0.40;0.40;;;;;;;;;;6194793;23;20004;-93
2023/01/12 08:54:14;;;;;;;0.00;0.00;;;;;;;;;;6199668;23;20072;-93
2023/01/12 08:56:42;;;;;;;3.40;1.55;;;;;;;;;;6200465;23;20083;-92
2023/01/12 08:59:11;;;;;;;0.00;0.00;;;;;;;;;;6199831;23;20375;-93
2023/01/12 09:01:37;;;;;;;0.00;0.00;;;;;;;;;;6174946;23;20436;-90
2023/01/12 09:04:03;;;;;;;0.00;0.00;;;;;;;;;;6169971;23;20016;-89
2023/01/12 09:06:33;;;;;;;1.65;1.55;;;;;;;;;;6172654;23;20064;-90
2023/01/12 09:09:04;;;;;;;6.80;2.08;;;;;;;;;;6197550;23;20009;-91
2023/01/12 09:11:31;;;;;;;0.00;0.00;;;;;;;;;;6198996;23;20310;-91
2023/01/12 09:13:57;;;;;;;0.00;0.00;;;;;;;;;;6173466;23;20024;-91
2023/01/12 09:16:26;;;;;;;0.00;0.00;;;;;;;;;;6197677;23;20034;-91
2023/01/12 09:18:57;;;;;;;0.00;0.00;;;;;;;;;;6224678;23;20088;-92
2023/01/12 09:21:24;;;;;;;0.00;0.00;;;;;;;;;;6173089;23;20103;-91
2023/01/12 09:23:51;;;;;;;0.00;0.00;;;;;;;;;;6194999;22;20008;-92
2023/01/12 09:26:27;;;;;;;0.00;0.00;;;;;;;;;;6205057;22;20024;-91
2023/01/12 09:28:53;;;;;;;0.00;0.00;;;;;;;;;;6197549;23;20146;-91
2023/01/12 09:31:21;;;;;;;0.00;0.00;;;;;;;;;;6199090;23;20012;-91
2023/01/12 09:33:47;;;;;;;0.00;0.00;;;;;;;;;;6173063;23;20017;-91
2023/01/12 09:36:14;;;;;;;0.10;0.10;;;;;;;;;;6195908;23;20420;-91
2023/01/12 09:38:41;;;;;;;0.00;0.00;;;;;;;;;;6195028;23;20444;-91
2023/01/12 09:47:12;;;;;;;0.15;0.15;;;;;;;;;;6221101;23;20063;-92
2023/01/12 09:49:40;;;;;;;0.00;0.00;;;;;;;;;;6191263;23;20064;-92
2023/01/12 09:52:12;;;;;;;0.00;0.00;;;;;;;;;;6193688;23;20049;-93
2023/01/12 09:54:39;;;;;;;0.00;0.00;;;;;;;;;;6193859;23;20005;-93
2023/01/12 09:57:29;;;;;;;2.15;1.80;;;;;;;;;;6167761;23;20008;-92
2023/01/12 10:00:09;;;;;;;0.00;0.00;;;;;;;;;;6138056;23;20001;-92
2023/01/12 10:02:36;;;;;;;0.00;0.00;;;;;;;;;;6191481;23;20000;-92
2023/01/12 10:05:07;;;;;;;0.00;0.00;;;;;;;;;;6193427;23;19993;-92
2023/01/12 10:07:33;;;;;;;0.00;0.00;;;;;;;;;;6197447;23;20424;-93
2023/01/12 10:10:00;;;;;;;0.00;0.00;;;;;;;;;;6169819;23;20455;-93
2023/01/12 10:12:33;;;;;;;0.00;0.00;;;;;;;;;;6169529;23;20051;-92
2023/01/12 10:15:05;;;;;;;0.00;0.00;;;;;;;;;;6191845;23;20020;-92
2023/01/12 10:17:57;;;;;;;0.77;0.60;;;;;;;;;;6189531;23;20019;-92
2023/01/12 10:20:33;;;;;;;0.00;0.00;;;;;;;;;;6195200;23;20008;-92
2023/01/12 10:22:59;;;;;;;;;;;;;;;;;;6195865;23;20005;-93
2023/01/12 10:25:25;;;;;;;0.00;0.00;;;;;;;;;;6191867;22;19912;-91
2023/01/12 10:27:56;;;;;;;0.00;0.00;;;;;;;;;;6184063;23;20096;-92
2023/01/12 10:30:33;;;;;;;10.52;1.40;;;;;;;;;;6188782;23;20016;-92
2023/01/12 10:33:16;;;;;;;0.00;0.00;;;;;;;;;;6189864;23;20039;-92
2023/01/12 10:36:01;;;;;;;0.00;0.00;;;;;;;;;;6205275;23;20008;-94
2023/01/12 10:48:28;;;;;;;0.00;0.00;;;;;;;;;;6217576;23;20012;-93
2023/01/12 10:54:08;;;;;;;0.00;0.00;;;;;;;;;;6220808;23;20078;-92
2023/01/12 10:56:52;;;;;;;0.00;0.00;;;;;;;;;;6195193;23;20008;-93
2023/01/12 10:59:23;;;;;;;0.00;0.00;;;;;;;;;;6197397;23;20523;-91
2023/01/12 11:02:08;;;;;;;0.00;0.00;;;;;;;;;;6201720;23;20001;-92
2023/01/12 11:05:18;;;;;;;0.00;0.00;;;;;;;;;;6202477;23;20000;-93
2023/01/12 11:08:03;;;;;;;0.00;0.00;;;;;;;;;;6079068;23;20022;-94
2023/01/12 11:10:31;;;;;;;0.00;0.00;;;;;;;;;;6076452;23;20054;-93
2023/01/12 11:13:04;;;;;;;7.00;2.92;;;;;;;;;;6082415;23;20038;-94
2023/01/12 11:15:53;;;;;;;;;;;;;;;;;;;;;
2023/01/12 11:18:25;;;;;;;0.00;0.00;;;;;;;;;;6228964;23;20028;-93
2023/01/12 11:21:12;;;;;;;0.00;0.00;;;;;;;;;;6202138;23;20005;-93
2023/01/12 11:23:38;;;;;;;;;;;;;;;;;;6197788;23;20011;-93
2023/01/12 11:26:34;;;;;;;0.00;0.00;;;;;;;;;;6212156;22;19911;-93
2023/01/12 11:29:18;;;;;;;0.00;0.00;;;;;;;;;;6197303;23;20433;-94
2023/01/12 11:32:08;;;;;;;0.00;0.00;;;;;;;;;;6196120;23;20059;-94
2023/01/12 11:34:57;;;;;;;0.00;0.00;;;;;;;;;;6180704;23;20058;-93
2023/01/12 11:37:59;;;;;;;0.00;0.00;;;;;;;;;;6106843;23;20017;-95
2023/01/12 11:40:32;;;;;;;0.00;0.00;;;;;;;;;;6077730;23;20005;-91
2023/01/12 11:46:16;;;;;;;0.00;0.00;;;;;;;;;;6222578;23;20471;-94
2023/01/12 11:48:46;;;;;;;0.00;0.00;;;;;;;;;;6190665;23;20012;-93
2023/01/12 11:51:16;;;;;;;0.00;0.00;;;;;;;;;;6193128;23;20013;-92
2023/01/12 11:53:42;;;;;;;0.00;0.00;;;;;;;;;;6191379;23;20016;-93
2023/01/12 11:56:23;;;;;;;0.00;0.00;;;;;;;;;;6166694;23;20270;-93
2023/01/12 11:58:59;;;;;;;0.00;0.00;;;;;;;;;;6216589;23;20008;-92
2023/01/12 12:01:35;;;;;;;0.00;0.00;;;;;;;;;;6191896;23;20005;-93
2023/01/12 12:04:04;;;;;;;0.00;0.00;;;;;;;;;;6192367;23;20005;-92
2023/01/12 12:06:49;;;;;;;0.00;0.00;;;;;;;;;;6191627;23;20009;-91
2023/01/12 12:09:15;;;;;;;0.00;0.00;;;;;;;;;;6191629;23;20318;-94
2023/01/12 12:11:55;;;;;;;0.00;0.00;;;;;;;;;;6191841;23;20060;-92
2023/01/12 12:14:27;;;;;;;0.00;0.00;;;;;;;;;;6191092;23;20035;-92
2023/01/12 12:17:00;;;;;;;0.00;0.00;;;;;;;;;;6192272;23;20013;-93
2023/01/12 12:19:35;;;;;;;0.00;0.00;;;;;;;;;;6191852;23;20433;-93
2023/01/12 12:22:11;;;;;;;0.00;0.00;;;;;;;;;;6191866;23;20004;-95
2023/01/12 12:24:37;;;;;;;;;;;;;;;;;;6192850;23;19997;-94
2023/01/12 12:27:10;;;;;;;16.02;1.55;;;;;;;;;;6220312;22;19919;-94
2023/01/12 12:30:03;;;;;;;24.50;2.30;;;;;;;;;;6192301;23;20085;-94
2023/01/12 12:32:35;;;;;;;7.13;1.98;;;;;;;;;;6191877;23;20044;-94
2023/01/12 12:35:21;;;;;;;10.43;1.55;;;;;;;;;;6191754;23;20005;-93
2023/01/12 12:37:51;;;;;;;8.25;1.58;;;;;;;;;;6191949;23;20020;-94
2023/01/12 12:46:26;;;;;;;6.93;1.35;;;;;;;;;;6223656;23;20116;-94
2023/01/12 12:48:57;;;;;;;11.03;1.57;;;;;;;;;;6196376;23;20047;-93
2023/01/12 12:51:27;;;;;;;6.93;1.20;;;;;;;;;;6195179;23;20248;-93
2023/01/12 12:53:53;;;;;;;5.70;0.80;;;;;;;;;;6193481;23;20011;-93
2023/01/12 12:56:22;;;;;;;13.90;0.88;;;;;;;;;;6192951;23;20246;-92
2023/01/12 12:58:55;;;;;;;5.25;1.30;;;;;;;;;;6190717;23;20329;-93
2023/01/12 13:01:22;;;;;;;5.05;1.52;;;;;;;;;;6189928;23;20004;-93
2023/01/12 13:03:49;;;;;;;5.38;1.95;;;;;;;;;;6191334;23;20059;-93
2023/01/12 13:06:22;;;;;;;8.65;1.02;;;;;;;;;;6191236;23;20420;-93
2023/01/12 13:08:54;;;;;;;4.30;0.85;;;;;;;;;;6190383;23;20023;-93
2023/01/12 13:11:21;;;;;;;2.70;0.80;;;;;;;;;;6164093;23;20055;-93
2023/01/12 13:13:57;;;;;;;12.63;2.40;;;;;;;;;;6166271;23;20013;-93
2023/01/12 13:16:28;;;;;;;11.95;1.45;;;;;;;;;;6189855;23;20012;-94
2023/01/12 13:18:54;;;;;;;10.88;1.73;;;;;;;;;;6191342;23;20654;-93
2023/01/12 13:21:23;;;;;;;19.98;1.85;;;;;;;;;;6191375;23;20016;-93
2023/01/12 13:23:50;;;;;;;24.00;2.72;;;;;;;;;;6191249;23;20472;-94
2023/01/12 13:26:27;;;;;;;17.13;2.05;;;;;;;;;;6191463;23;20439;-93
2023/01/12 13:29:25;;;;;;;25.48;2.50;;;;;;;;;;6187562;22;20020;-93
2023/01/12 13:31:59;;;;;;;6.80;1.73;;;;;;;;;;6120676;23;20096;-93
2023/01/12 13:34:37;;;;;;;12.20;1.73;;;;;;;;;;6185678;23;20008;-93
2023/01/12 13:37:06;;;;;;;12.60;2.90;;;;;;;;;;6184648;23;20009;-93
2023/01/12 13:39:37;;;;;;;9.57;1.63;;;;;;;;;;6190444;23;20031;-93
2023/01/12 13:45:01;;;;;;;9.52;1.30;;;;;;;;;;6110852;23;20253;-93
2023/01/12 13:47:32;;;;;;;9.15;1.05;;;;;;;;;;6191118;23;20008;-93
2023/01/12 13:49:59;;;;;;;16.35;2.25;;;;;;;;;;6190984;23;20008;-93
2023/01/12 13:52:29;;;;;;;3.95;0.57;;;;;;;;;;6191732;23;20008;-93
2023/01/12 13:54:59;;;;;;;22.45;2.42;;;;;;;;;;6190805;23;20044;-93
2023/01/12 13:57:36;;;;;;;12.75;1.83;;;;;;;;;;6190362;23;20013;-93
2023/01/12 14:00:07;;;;;;;10.73;1.67;;;;;;;;;;6169344;23;20009;-93
2023/01/12 14:02:35;;;;;;;19.15;2.47;;;;;;;;;;6192122;23;20008;-93
2023/01/12 14:05:22;;;;;;;8.20;1.88;;;;;;;;;;6191573;23;20092;-93
2023/01/12 14:08:07;;;;;;;30.80;2.90;;;;;;;;;;6191877;23;20005;-93
2023/01/12 14:10:47;;;;;;;7.88;1.70;;;;;;;;;;6192362;23;20310;-93
2023/01/12 14:13:16;;;;;;;17.40;3.08;;;;;;;;;;6192127;23;20442;-93
2023/01/12 14:18:48;;;;;;;12.02;2.70;;;;;;;;;;6218565;23;20116;-96
2023/01/12 14:21:44;;;;;;;5.90;1.40;;;;;;;;;;6197971;23;20007;-96
2023/01/12 14:24:41;;;;;;;;;;;;;;;;;;;;;
2023/01/12 14:27:47;;;;;;;12.95;2.67;;;;;;;;;;6227267;22;20028;-96
2023/01/12 14:30:21;;;;;;;7.65;1.65;;;;;;;;;;6197729;23;20054;-93
2023/01/12 14:32:48;;;;;;;20.23;2.53;;;;;;;;;;6246860;23;20016;-94
2023/01/12 14:35:19;;;;;;;15.85;2.13;;;;;;;;;;6196151;23;20036;-94
2023/01/12 14:38:05;;;;;;;12.63;1.58;;;;;;;;;;6247984;23;20004;-96
2023/01/12 14:40:32;;;;;;;17.42;3.17;;;;;;;;;;6247774;23;20004;-92
2023/01/12 14:48:42;;;;;;;9.65;2.05;;;;;;;;;;6247016;23;20242;-92
2023/01/12 14:51:26;;;;;;;25.92;2.38;;;;;;;;;;6248897;23;20008;-91
2023/01/12 14:54:06;;;;;;;20.90;3.38;;;;;;;;;;6248293;23;20463;-91
2023/01/12 14:56:41;;;;;;;17.35;3.20;;;;;;;;;;6249039;23;20024;-91
2023/01/12 14:59:09;;;;;;;11.53;2.00;;;;;;;;;;6247166;23;20340;-90
2023/01/12 15:01:36;;;;;;;8.32;0.93;;;;;;;;;;6247748;23;20271;-90
2023/01/12 15:04:04;;;;;;;15.35;3.42;;;;;;;;;;6246827;23;20070;-90
2023/01/12 15:06:31;;;;;;;8.75;2.15;;;;;;;;;;6246856;23;20015;-91
2023/01/12 15:09:36;;;;;;;11.55;2.13;;;;;;;;;;6223390;23;20011;-91
2023/01/12 15:12:21;;;;;;;10.70;2.03;;;;;;;;;;6247556;23;20034;-91
2023/01/12 15:14:53;;;;;;;6.78;1.65;;;;;;;;;;6242739;23;20012;-90
2023/01/12 15:25:40;;;;;;;10.60;1.48;;;;;;;;;;6222134;23;20019;-91
2023/01/12 15:28:08;;;;;;;2.95;0.50;;;;;;;;;;6245259;23;20011;-93
2023/01/12 15:30:43;;;;;;;5.15;0.82;;;;;;;;;;6216019;22;20104;-92
2023/01/12 15:33:33;;;;;;;5.68;1.25;;;;;;;;;;6199291;23;19993;-92
2023/01/12 15:36:06;;;;;;;1.35;0.47;;;;;;;;;;6188364;23;20012;-90
2023/01/12 15:38:32;;;;;;;2.35;0.63;;;;;;;;;;6185464;23;20012;-92
2023/01/12 15:41:12;;;;;;;1.08;0.90;;;;;;;;;;6186091;23;20005;-90
2023/01/12 15:43:38;;;;;;;3.83;1.08;;;;;;;;;;6188242;23;20013;-92
2023/01/12 15:46:12;;;;;;;3.35;0.77;;;;;;;;;;6162553;23;20005;-92
2023/01/12 15:48:41;;;;;;;4.93;0.60;;;;;;;;;;6186936;23;20035;-92
2023/01/12 15:51:08;;;;;;;1.45;0.63;;;;;;;;;;6162358;23;20008;-92
2023/01/12 15:53:34;;;;;;;4.03;0.95;;;;;;;;;;6185817;23;20009;-92
2023/01/12 15:56:01;;;;;;;1.20;0.57;;;;;;;;;;6163749;23;20017;-92
2023/01/12 15:58:30;;;;;;;1.65;0.45;;;;;;;;;;6186372;23;20020;-91
2023/01/12 16:00:57;;;;;;;3.35;1.20;;;;;;;;;;6164392;23;20043;-91
2023/01/12 16:03:26;;;;;;;0.40;0.40;;;;;;;;;;6188889;23;20353;-90
2023/01/12 16:05:53;;;;;;;2.13;1.23;;;;;;;;;;6214981;23;20079;-92
2023/01/12 16:08:19;;;;;;;7.97;0.68;;;;;;;;;;6190717;23;20008;-92
2023/01/12 16:13:33;;;;;;;8.13;1.40;;;;;;;;;;6215969;23;20015;-92
2023/01/12 16:15:59;;;;;;;6.72;1.98;;;;;;;;;;6165630;23;20016;-92
2023/01/12 16:21:43;;;;;;;13.60;2.20;;;;;;;;;;6183091;23;20012;-92
2023/01/12 16:24:09;;;;;;;10.70;1.48;;;;;;;;;;6168823;23;20447;-92
2023/01/12 16:26:45;;;;;;;3.72;1.50;;;;;;;;;;6192762;23;20024;-91
2023/01/12 16:29:22;;;;;;;1.45;0.85;;;;;;;;;;6191748;22;20388;-90
2023/01/12 16:31:48;;;;;;;3.00;0.77;;;;;;;;;;6170907;23;20012;-90
2023/01/12 16:34:21;;;;;;;10.75;2.63;;;;;;;;;;6164303;23;20027;-91
2023/01/12 16:36:54;;;;;;;15.63;1.77;;;;;;;;;;6165419;23;20016;-91
2023/01/12 16:39:23;;;;;;;1.17;0.88;;;;;;;;;;6185279;23;20015;-90
2023/01/12 16:41:52;;;;;;;2.95;0.85;;;;;;;;;;6184490;23;20008;-91